Flight Track Log - Related Links

Times and Time Zones

All times are in EDT time to prevent confusion due to time zone crossing. See the CTL18 flight status page for this flight to view local times or setup timezone preferences in your user account.

Time Position Orientation Groundspeed Altitude Reporting Facility
EDT Latitude Longitude Course Direction KTS MPH feet Rate Location/Type
Tue 06:55:12 PM 42.6622 -83.4464 26° Northeast 106 122 1,500  Level Cleveland Center
Tue 06:57:00 PM 42.7193 -83.4091 26° Northeast  Level FlightAware Approximate
Tue 07:04:00 PM 42.9511 -83.4228 321° Northwest  Level FlightAware Approximate
Tue 07:05:00 PM 42.9785 -83.4529 321° Northwest  Level FlightAware Approximate
Tue 07:06:00 PM 43.0059 -83.4831 321° Northwest  Level FlightAware Approximate
Tue 07:07:00 PM 43.0332 -83.5134 321° Northwest  Level FlightAware Approximate
Tue 07:08:00 PM 43.0606 -83.5436 321° Northwest  Level FlightAware Approximate
Tue 07:09:00 PM 43.0880 -83.5739 321° Northwest  Level FlightAware Approximate
Tue 07:10:00 PM 43.1153 -83.6041 321° Northwest  Level FlightAware Approximate
Tue 07:11:00 PM 43.1427 -83.6345 321° Northwest  Level FlightAware Approximate
Tue 07:12:00 PM 43.1700 -83.6648 321° Northwest  Level FlightAware Approximate
Tue 07:13:00 PM 43.1974 -83.6952 321° Northwest  Level FlightAware Approximate
Tue 07:14:00 PM 43.2244 -83.7261 318° Northwest  Level FlightAware Approximate
Tue 07:15:00 PM 43.2507 -83.7581 318° Northwest  Level FlightAware Approximate
Tue 07:16:00 PM 43.2770 -83.7902 318° Northwest  Level FlightAware Approximate
Tue 07:17:00 PM 43.3033 -83.8224 318° Northwest  Level FlightAware Approximate
Tue 07:18:00 PM 43.3296 -83.8545 318° Northwest  Level FlightAware Approximate
Tue 07:19:00 PM 43.3558 -83.8867 318° Northwest  Level FlightAware Approximate
Tue 07:20:00 PM 43.3834 -83.9167 324° Northwest  Level FlightAware Approximate
Tue 07:21:00 PM 43.4119 -83.9451 324° Northwest  Level FlightAware Approximate
Tue 07:22:00 PM 43.4403 -83.9736 324° Northwest  Level FlightAware Approximate
Tue 07:23:00 PM 43.4688 -84.0021 324° Northwest  Level FlightAware Approximate
Tue 07:24:00 PM 43.4972 -84.0306 324° Northwest  Level FlightAware Approximate
Tue 07:25:00 PM 43.5167 -84.0667 305° West  Level FlightAware Approximate
Tue 07:26:00 PM 43.5329 -84.0796 305° West  Level Estimated

Login

Don't have an account? Register now (free) for customized features, flight alerts, and more!